sensor_id;sensor_type;location;lat;lon;timestamp;pressure;altitude;pressure_sealevel;temperature;humidity
23361;BME280;11852;50.082;18.554;2023-04-23T00:00:54;98206.5;;;11.42;59.87
23361;BME280;11852;50.082;18.554;2023-04-23T00:02:01;98209.0;;;11.37;60.06
23361;BME280;11852;50.082;18.554;2023-04-23T00:03:08;98211.0;;;11.36;60.06
23361;BME280;11852;50.082;18.554;2023-04-23T00:04:18;98209.5;;;11.38;60.03
23361;BME280;11852;50.082;18.554;2023-04-23T00:05:26;98207.99;;;11.45;59.84
23361;BME280;11852;50.082;18.554;2023-04-23T00:06:34;98211.0;;;11.41;59.99
23361;BME280;11852;50.082;18.554;2023-04-23T00:07:40;98209.5;;;11.42;59.9
23361;BME280;11852;50.082;18.554;2023-04-23T00:08:47;98208.5;;;11.44;59.9
23361;BME280;11852;50.082;18.554;2023-04-23T00:09:54;98208.0;;;11.44;59.96
23361;BME280;11852;50.082;18.554;2023-04-23T00:11:01;98208.5;;;11.48;59.84
23361;BME280;11852;50.082;18.554;2023-04-23T00:12:08;98205.51;;;11.49;59.92
23361;BME280;11852;50.082;18.554;2023-04-23T00:13:14;98205.5;;;11.48;60.01
23361;BME280;11852;50.082;18.554;2023-04-23T00:14:21;98206.5;;;11.47;60.11
23361;BME280;11852;50.082;18.554;2023-04-23T00:15:28;98204.0;;;11.48;60.07
23361;BME280;11852;50.082;18.554;2023-04-23T00:16:38;98204.51;;;11.45;60.15
23361;BME280;11852;50.082;18.554;2023-04-23T00:17:44;98202.5;;;11.49;59.99
23361;BME280;11852;50.082;18.554;2023-04-23T00:18:51;98202.0;;;11.43;60.25
23361;BME280;11852;50.082;18.554;2023-04-23T00:19:59;98200.0;;;11.43;60.34
23361;BME280;11852;50.082;18.554;2023-04-23T00:21:05;98200.0;;;11.48;60.07
23361;BME280;11852;50.082;18.554;2023-04-23T00:22:15;98199.0;;;11.44;60.22
23361;BME280;11852;50.082;18.554;2023-04-23T00:23:22;98198.0;;;11.43;60.25
23361;BME280;11852;50.082;18.554;2023-04-23T00:24:29;98194.0;;;11.41;60.22
23361;BME280;11852;50.082;18.554;2023-04-23T00:25:37;98195.0;;;11.44;60.07
23361;BME280;11852;50.082;18.554;2023-04-23T00:26:44;98194.5;;;11.42;60.18
23361;BME280;11852;50.082;18.554;2023-04-23T00:27:51;98195.0;;;11.43;60.21
23361;BME280;11852;50.082;18.554;2023-04-23T00:28:58;98192.01;;;11.44;60.1
23361;BME280;11852;50.082;18.554;2023-04-23T00:30:05;98193.01;;;11.42;60.25
23361;BME280;11852;50.082;18.554;2023-04-23T00:31:12;98191.5;;;11.43;60.26
23361;BME280;11852;50.082;18.554;2023-04-23T00:32:20;98192.51;;;11.47;60.17
23361;BME280;11852;50.082;18.554;2023-04-23T00:33:27;98191.0;;;11.43;60.29
23361;BME280;11852;50.082;18.554;2023-04-23T00:34:34;98187.0;;;11.4;60.47
23361;BME280;11852;50.082;18.554;2023-04-23T00:35:41;98187.0;;;11.41;60.47
23361;BME280;11852;50.082;18.554;2023-04-23T00:36:48;98189.0;;;11.39;60.56
23361;BME280;11852;50.082;18.554;2023-04-23T00:37:55;98187.0;;;11.37;60.68
23361;BME280;11852;50.082;18.554;2023-04-23T00:39:02;98186.0;;;11.38;60.76
23361;BME280;11852;50.082;18.554;2023-04-23T00:40:10;98186.0;;;11.34;60.95
23361;BME280;11852;50.082;18.554;2023-04-23T00:41:17;98189.0;;;11.28;61.1
23361;BME280;11852;50.082;18.554;2023-04-23T00:42:24;98185.5;;;11.24;61.19
23361;BME280;11852;50.082;18.554;2023-04-23T00:43:31;98182.99;;;11.19;61.36
23361;BME280;11852;50.082;18.554;2023-04-23T00:44:38;98183.5;;;11.31;61.0
23361;BME280;11852;50.082;18.554;2023-04-23T00:45:44;98185.5;;;11.35;60.83
23361;BME280;11852;50.082;18.554;2023-04-23T00:46:51;98184.5;;;11.35;60.93
23361;BME280;11852;50.082;18.554;2023-04-23T00:47:58;98185.5;;;11.34;60.96
23361;BME280;11852;50.082;18.554;2023-04-23T00:49:06;98185.5;;;11.4;60.92
23361;BME280;11852;50.082;18.554;2023-04-23T00:50:13;98181.5;;;11.39;61.0
23361;BME280;11852;50.082;18.554;2023-04-23T00:51:20;98184.0;;;11.4;60.81
23361;BME280;11852;50.082;18.554;2023-04-23T00:52:27;98182.99;;;11.39;61.06
23361;BME280;11852;50.082;18.554;2023-04-23T00:53:33;98185.5;;;11.38;61.08
23361;BME280;11852;50.082;18.554;2023-04-23T00:54:43;98184.0;;;11.36;61.37
23361;BME280;11852;50.082;18.554;2023-04-23T00:55:50;98188.0;;;11.35;61.53
23361;BME280;11852;50.082;18.554;2023-04-23T00:56:57;98184.0;;;11.34;61.6
23361;BME280;11852;50.082;18.554;2023-04-23T00:58:04;98186.5;;;11.34;61.54
23361;BME280;11852;50.082;18.554;2023-04-23T00:59:11;98187.5;;;11.29;61.51
23361;BME280;11852;50.082;18.554;2023-04-23T01:00:18;98186.0;;;11.26;61.62
23361;BME280;11852;50.082;18.554;2023-04-23T01:01:25;98190.0;;;11.26;61.67
23361;BME280;11852;50.082;18.554;2023-04-23T01:02:31;98186.5;;;11.21;61.76
23361;BME280;11852;50.082;18.554;2023-04-23T01:03:38;98188.5;;;11.27;61.6
23361;BME280;11852;50.082;18.554;2023-04-23T01:04:45;98188.0;;;11.27;61.63
23361;BME280;11852;50.082;18.554;2023-04-23T01:05:52;98192.5;;;11.28;61.63
23361;BME280;11852;50.082;18.554;2023-04-23T01:06:59;98189.0;;;11.24;61.67
23361;BME280;11852;50.082;18.554;2023-04-23T01:08:06;98189.0;;;11.22;61.74
23361;BME280;11852;50.082;18.554;2023-04-23T01:09:13;98188.0;;;11.23;61.63
23361;BME280;11852;50.082;18.554;2023-04-23T01:10:20;98188.0;;;11.23;61.72
23361;BME280;11852;50.082;18.554;2023-04-23T01:11:27;98187.5;;;11.22;61.76
23361;BME280;11852;50.082;18.554;2023-04-23T01:12:34;98193.5;;;11.18;61.84
23361;BME280;11852;50.082;18.554;2023-04-23T01:13:41;98193.01;;;11.16;61.89
23361;BME280;11852;50.082;18.554;2023-04-23T01:14:47;98191.5;;;11.13;61.93
23361;BME280;11852;50.082;18.554;2023-04-23T01:15:55;98191.0;;;11.14;61.98
23361;BME280;11852;50.082;18.554;2023-04-23T01:17:01;98192.51;;;11.15;61.99
23361;BME280;11852;50.082;18.554;2023-04-23T01:18:10;98192.0;;;11.11;62.1
23361;BME280;11852;50.082;18.554;2023-04-23T01:19:15;98194.0;;;11.1;62.25
23361;BME280;11852;50.082;18.554;2023-04-23T01:20:22;98190.0;;;11.06;62.24
23361;BME280;11852;50.082;18.554;2023-04-23T01:21:29;98191.5;;;11.08;62.13
23361;BME280;11852;50.082;18.554;2023-04-23T01:22:36;98193.5;;;11.1;62.03
23361;BME280;11852;50.082;18.554;2023-04-23T01:23:43;98192.51;;;11.09;62.13
23361;BME280;11852;50.082;18.554;2023-04-23T01:24:50;98194.49;;;11.07;62.16
23361;BME280;11852;50.082;18.554;2023-04-23T01:25:57;98190.5;;;11.08;62.13
23361;BME280;11852;50.082;18.554;2023-04-23T01:27:04;98191.5;;;11.07;62.26
23361;BME280;11852;50.082;18.554;2023-04-23T01:28:11;98189.5;;;11.05;62.57
23361;BME280;11852;50.082;18.554;2023-04-23T01:29:20;98190.5;;;11.02;62.68
23361;BME280;11852;50.082;18.554;2023-04-23T01:30:27;98190.0;;;11.01;62.78
23361;BME280;11852;50.082;18.554;2023-04-23T01:31:34;98189.5;;;11.0;62.94
23361;BME280;11852;50.082;18.554;2023-04-23T01:32:41;98189.0;;;11.01;62.84
23361;BME280;11852;50.082;18.554;2023-04-23T01:33:50;98187.5;;;10.98;62.92
23361;BME280;11852;50.082;18.554;2023-04-23T01:34:57;98189.5;;;10.93;62.97
23361;BME280;11852;50.082;18.554;2023-04-23T01:36:04;98190.0;;;10.97;62.93
23361;BME280;11852;50.082;18.554;2023-04-23T01:37:11;98188.0;;;10.97;62.92
23361;BME280;11852;50.082;18.554;2023-04-23T01:38:18;98190.0;;;10.97;62.91
23361;BME280;11852;50.082;18.554;2023-04-23T01:39:24;98190.0;;;10.94;62.91
23361;BME280;11852;50.082;18.554;2023-04-23T01:40:31;98187.0;;;10.95;62.97
23361;BME280;11852;50.082;18.554;2023-04-23T01:41:38;98182.99;;;10.89;63.09
23361;BME280;11852;50.082;18.554;2023-04-23T01:42:45;98187.5;;;10.94;63.02
23361;BME280;11852;50.082;18.554;2023-04-23T01:43:52;98185.5;;;10.87;63.17
23361;BME280;11852;50.082;18.554;2023-04-23T01:44:59;98183.0;;;10.89;63.19
23361;BME280;11852;50.082;18.554;2023-04-23T01:46:06;98183.5;;;10.86;63.31
23361;BME280;11852;50.082;18.554;2023-04-23T01:47:12;98186.0;;;10.9;63.31
23361;BME280;11852;50.082;18.554;2023-04-23T01:48:19;98187.5;;;10.92;63.3
23361;BME280;11852;50.082;18.554;2023-04-23T01:49:26;98187.5;;;10.93;63.29
23361;BME280;11852;50.082;18.554;2023-04-23T01:50:33;98186.5;;;10.93;63.37
23361;BME280;11852;50.082;18.554;2023-04-23T01:51:41;98184.0;;;10.96;63.28
23361;BME280;11852;50.082;18.554;2023-04-23T01:52:48;98183.5;;;10.98;63.28
23361;BME280;11852;50.082;18.554;2023-04-23T01:53:54;98185.5;;;10.98;63.38
23361;BME280;11852;50.082;18.554;2023-04-23T01:55:01;98180.01;;;10.97;63.26
23361;BME280;11852;50.082;18.554;2023-04-23T01:56:08;98181.01;;;10.99;63.28
23361;BME280;11852;50.082;18.554;2023-04-23T01:57:15;98181.0;;;10.97;63.32
23361;BME280;11852;50.082;18.554;2023-04-23T01:58:22;98184.5;;;10.99;63.28
23361;BME280;11852;50.082;18.554;2023-04-23T01:59:29;98180.5;;;11.0;63.23
23361;BME280;11852;50.082;18.554;2023-04-23T02:00:35;98180.51;;;11.0;63.36
23361;BME280;11852;50.082;18.554;2023-04-23T02:01:45;98178.5;;;10.98;63.54
23361;BME280;11852;50.082;18.554;2023-04-23T02:02:52;98178.0;;;10.95;63.6
23361;BME280;11852;50.082;18.554;2023-04-23T02:03:59;98178.5;;;10.94;63.54
23361;BME280;11852;50.082;18.554;2023-04-23T02:05:10;98181.01;;;10.9;63.82
23361;BME280;11852;50.082;18.554;2023-04-23T02:06:13;98178.5;;;10.84;63.85
23361;BME280;11852;50.082;18.554;2023-04-23T02:07:20;98179.51;;;10.75;64.26
23361;BME280;11852;50.082;18.554;2023-04-23T02:08:26;98181.5;;;10.74;64.26
23361;BME280;11852;50.082;18.554;2023-04-23T02:09:37;98180.01;;;10.73;64.33
23361;BME280;11852;50.082;18.554;2023-04-23T02:10:44;98180.5;;;10.72;64.42
23361;BME280;11852;50.082;18.554;2023-04-23T02:11:51;98178.5;;;10.66;64.6
23361;BME280;11852;50.082;18.554;2023-04-23T02:12:58;98177.0;;;10.67;64.47
23361;BME280;11852;50.082;18.554;2023-04-23T02:14:05;98177.5;;;10.65;64.56
23361;BME280;11852;50.082;18.554;2023-04-23T02:15:12;98178.5;;;10.62;64.71
23361;BME280;11852;50.082;18.554;2023-04-23T02:16:18;98178.0;;;10.55;65.1
23361;BME280;11852;50.082;18.554;2023-04-23T02:17:25;98175.0;;;10.52;65.19
23361;BME280;11852;50.082;18.554;2023-04-23T02:18:32;98176.0;;;10.49;65.29
23361;BME280;11852;50.082;18.554;2023-04-23T02:19:39;98175.5;;;10.47;65.49
23361;BME280;11852;50.082;18.554;2023-04-23T02:20:46;98175.5;;;10.45;65.58
23361;BME280;11852;50.082;18.554;2023-04-23T02:21:53;98170.49;;;10.41;65.83
23361;BME280;11852;50.082;18.554;2023-04-23T02:23:00;98168.99;;;10.36;66.07
23361;BME280;11852;50.082;18.554;2023-04-23T02:24:07;98169.49;;;10.33;66.15
23361;BME280;11852;50.082;18.554;2023-04-23T02:25:14;98166.5;;;10.32;66.1
23361;BME280;11852;50.082;18.554;2023-04-23T02:26:21;98167.01;;;10.34;66.06
23361;BME280;11852;50.082;18.554;2023-04-23T02:27:28;98165.5;;;10.33;66.1
23361;BME280;11852;50.082;18.554;2023-04-23T02:28:35;98168.5;;;10.31;66.13
23361;BME280;11852;50.082;18.554;2023-04-23T02:29:42;98168.0;;;10.32;66.03
23361;BME280;11852;50.082;18.554;2023-04-23T02:30:48;98167.5;;;10.31;66.09
23361;BME280;11852;50.082;18.554;2023-04-23T02:31:55;98166.0;;;10.3;66.17
23361;BME280;11852;50.082;18.554;2023-04-23T02:33:03;98165.5;;;10.32;66.12
23361;BME280;11852;50.082;18.554;2023-04-23T02:34:10;98164.0;;;10.31;66.21
23361;BME280;11852;50.082;18.554;2023-04-23T02:35:17;98162.0;;;10.32;66.21
23361;BME280;11852;50.082;18.554;2023-04-23T02:36:24;98161.0;;;10.28;66.25
23361;BME280;11852;50.082;18.554;2023-04-23T02:37:33;98159.5;;;10.25;66.36
23361;BME280;11852;50.082;18.554;2023-04-23T02:38:43;98158.5;;;10.26;66.32
23361;BME280;11852;50.082;18.554;2023-04-23T02:39:49;98159.5;;;10.23;66.33
23361;BME280;11852;50.082;18.554;2023-04-23T02:40:56;98159.0;;;10.23;66.01
23361;BME280;11852;50.082;18.554;2023-04-23T02:42:03;98157.99;;;10.25;65.8
23361;BME280;11852;50.082;18.554;2023-04-23T02:43:10;98160.0;;;10.24;65.78
23361;BME280;11852;50.082;18.554;2023-04-23T02:44:17;98158.0;;;10.24;65.6
23361;BME280;11852;50.082;18.554;2023-04-23T02:45:24;98157.99;;;10.27;65.36
23361;BME280;11852;50.082;18.554;2023-04-23T02:46:31;98156.5;;;10.27;65.32
23361;BME280;11852;50.082;18.554;2023-04-23T02:47:38;98158.5;;;10.27;65.4
23361;BME280;11852;50.082;18.554;2023-04-23T02:48:44;98156.5;;;10.27;65.52
23361;BME280;11852;50.082;18.554;2023-04-23T02:49:51;98160.0;;;10.28;65.33
23361;BME280;11852;50.082;18.554;2023-04-23T02:50:58;98159.5;;;10.3;65.29
23361;BME280;11852;50.082;18.554;2023-04-23T02:52:05;98161.5;;;10.3;65.29
23361;BME280;11852;50.082;18.554;2023-04-23T02:53:12;98162.5;;;10.29;65.29
23361;BME280;11852;50.082;18.554;2023-04-23T02:54:19;98161.5;;;10.3;65.42
23361;BME280;11852;50.082;18.554;2023-04-23T02:55:26;98165.5;;;10.31;65.35
23361;BME280;11852;50.082;18.554;2023-04-23T02:56:33;98162.5;;;10.3;65.29
23361;BME280;11852;50.082;18.554;2023-04-23T02:57:40;98159.5;;;10.24;65.43
23361;BME280;11852;50.082;18.554;2023-04-23T02:58:48;98157.49;;;10.27;65.21
23361;BME280;11852;50.082;18.554;2023-04-23T02:59:54;98160.5;;;10.27;65.07
23361;BME280;11852;50.082;18.554;2023-04-23T03:01:03;98161.5;;;10.29;64.95
23361;BME280;11852;50.082;18.554;2023-04-23T03:02:10;98164.5;;;10.32;64.96
23361;BME280;11852;50.082;18.554;2023-04-23T03:03:17;98161.5;;;10.24;65.29
23361;BME280;11852;50.082;18.554;2023-04-23T03:04:24;98159.5;;;10.28;65.26
23361;BME280;11852;50.082;18.554;2023-04-23T03:05:31;98161.0;;;10.27;65.2
23361;BME280;11852;50.082;18.554;2023-04-23T03:06:37;98162.0;;;10.26;65.03
23361;BME280;11852;50.082;18.554;2023-04-23T03:07:46;98159.5;;;10.25;64.94
23361;BME280;11852;50.082;18.554;2023-04-23T03:08:52;98158.5;;;10.25;64.84
23361;BME280;11852;50.082;18.554;2023-04-23T03:09:59;98159.5;;;10.23;64.89
23361;BME280;11852;50.082;18.554;2023-04-23T03:11:06;98157.99;;;10.23;64.74
23361;BME280;11852;50.082;18.554;2023-04-23T03:12:13;98160.0;;;10.24;64.68
23361;BME280;11852;50.082;18.554;2023-04-23T03:13:20;98160.0;;;10.22;64.69
23361;BME280;11852;50.082;18.554;2023-04-23T03:14:27;98158.5;;;10.22;64.6
23361;BME280;11852;50.082;18.554;2023-04-23T03:15:35;98158.5;;;10.28;64.46
23361;BME280;11852;50.082;18.554;2023-04-23T03:16:42;98155.5;;;10.27;64.54
23361;BME280;11852;50.082;18.554;2023-04-23T03:17:49;98156.5;;;10.26;64.46
23361;BME280;11852;50.082;18.554;2023-04-23T03:18:57;98156.01;;;10.25;64.43
23361;BME280;11852;50.082;18.554;2023-04-23T03:20:03;98155.01;;;10.28;64.31
23361;BME280;11852;50.082;18.554;2023-04-23T03:21:10;98154.0;;;10.28;64.22
23361;BME280;11852;50.082;18.554;2023-04-23T03:22:17;98157.0;;;10.27;64.28
23361;BME280;11852;50.082;18.554;2023-04-23T03:23:24;98155.0;;;10.23;64.37
23361;BME280;11852;50.082;18.554;2023-04-23T03:24:34;98154.5;;;10.26;64.27
23361;BME280;11852;50.082;18.554;2023-04-23T03:25:41;98155.5;;;10.26;64.26
23361;BME280;11852;50.082;18.554;2023-04-23T03:26:48;98156.5;;;10.28;64.35
23361;BME280;11852;50.082;18.554;2023-04-23T03:27:54;98156.5;;;10.28;64.35
23361;BME280;11852;50.082;18.554;2023-04-23T03:29:01;98156.99;;;10.27;64.24
23361;BME280;11852;50.082;18.554;2023-04-23T03:30:09;98154.51;;;10.28;64.26
23361;BME280;11852;50.082;18.554;2023-04-23T03:31:15;98153.5;;;10.28;64.19
23361;BME280;11852;50.082;18.554;2023-04-23T03:32:23;98155.5;;;10.27;64.23
23361;BME280;11852;50.082;18.554;2023-04-23T03:33:29;98152.0;;;10.23;64.42
23361;BME280;11852;50.082;18.554;2023-04-23T03:34:36;98153.0;;;10.23;64.58
23361;BME280;11852;50.082;18.554;2023-04-23T03:35:43;98155.0;;;10.22;64.75
23361;BME280;11852;50.082;18.554;2023-04-23T03:36:50;98157.0;;;10.18;64.88
23361;BME280;11852;50.082;18.554;2023-04-23T03:37:57;98155.01;;;10.14;64.93
23361;BME280;11852;50.082;18.554;2023-04-23T03:39:04;98156.5;;;10.17;64.81
23361;BME280;11852;50.082;18.554;2023-04-23T03:40:11;98155.51;;;10.15;64.76
23361;BME280;11852;50.082;18.554;2023-04-23T03:41:18;98156.5;;;10.16;64.76
23361;BME280;11852;50.082;18.554;2023-04-23T03:42:25;98159.0;;;10.14;64.76
23361;BME280;11852;50.082;18.554;2023-04-23T03:43:32;98157.0;;;10.12;64.81
23361;BME280;11852;50.082;18.554;2023-04-23T03:44:39;98159.0;;;10.12;64.87
23361;BME280;11852;50.082;18.554;2023-04-23T03:45:46;98158.5;;;10.13;64.92
23361;BME280;11852;50.082;18.554;2023-04-23T03:46:52;98160.5;;;10.13;65.07
23361;BME280;11852;50.082;18.554;2023-04-23T03:48:00;98162.0;;;10.11;65.22
23361;BME280;11852;50.082;18.554;2023-04-23T03:49:07;98160.5;;;10.1;65.39
23361;BME280;11852;50.082;18.554;2023-04-23T03:50:14;98161.0;;;10.09;65.49
23361;BME280;11852;50.082;18.554;2023-04-23T03:51:22;98160.5;;;10.08;65.36
23361;BME280;11852;50.082;18.554;2023-04-23T03:52:29;98159.5;;;10.04;65.35
23361;BME280;11852;50.082;18.554;2023-04-23T03:53:36;98160.0;;;10.01;65.17
23361;BME280;11852;50.082;18.554;2023-04-23T03:54:43;98161.0;;;10.01;65.26
23361;BME280;11852;50.082;18.554;2023-04-23T03:55:50;98163.5;;;10.02;65.33
23361;BME280;11852;50.082;18.554;2023-04-23T03:56:56;98164.5;;;10.02;65.33
23361;BME280;11852;50.082;18.554;2023-04-23T03:58:03;98163.5;;;10.01;65.58
23361;BME280;11852;50.082;18.554;2023-04-23T03:59:10;98163.5;;;10.04;65.65
23361;BME280;11852;50.082;18.554;2023-04-23T04:00:17;98162.0;;;10.02;65.6
23361;BME280;11852;50.082;18.554;2023-04-23T04:01:24;98163.5;;;10.04;65.42
23361;BME280;11852;50.082;18.554;2023-04-23T04:02:31;98161.5;;;10.04;65.43
23361;BME280;11852;50.082;18.554;2023-04-23T04:03:38;98163.0;;;10.03;65.4
23361;BME280;11852;50.082;18.554;2023-04-23T04:04:45;98165.0;;;10.04;65.38
23361;BME280;11852;50.082;18.554;2023-04-23T04:05:51;98167.0;;;10.04;65.38
23361;BME280;11852;50.082;18.554;2023-04-23T04:06:59;98168.0;;;10.05;65.56
23361;BME280;11852;50.082;18.554;2023-04-23T04:08:05;98169.5;;;10.05;65.79
23361;BME280;11852;50.082;18.554;2023-04-23T04:09:12;98169.0;;;10.05;66.0
23361;BME280;11852;50.082;18.554;2023-04-23T04:10:19;98170.0;;;10.06;66.24
23361;BME280;11852;50.082;18.554;2023-04-23T04:11:26;98171.5;;;10.06;66.39
23361;BME280;11852;50.082;18.554;2023-04-23T04:12:33;98172.5;;;10.05;66.63
23361;BME280;11852;50.082;18.554;2023-04-23T04:13:40;98171.5;;;10.04;66.78
23361;BME280;11852;50.082;18.554;2023-04-23T04:14:47;98171.0;;;10.02;66.88
23361;BME280;11852;50.082;18.554;2023-04-23T04:15:54;98175.0;;;10.03;67.01
23361;BME280;11852;50.082;18.554;2023-04-23T04:17:00;98170.49;;;10.03;67.2
23361;BME280;11852;50.082;18.554;2023-04-23T04:18:07;98171.0;;;10.0;67.15
23361;BME280;11852;50.082;18.554;2023-04-23T04:19:14;98172.5;;;10.03;66.93
23361;BME280;11852;50.082;18.554;2023-04-23T04:20:21;98172.0;;;10.03;66.93
23361;BME280;11852;50.082;18.554;2023-04-23T04:21:28;98172.0;;;10.05;66.58
23361;BME280;11852;50.082;18.554;2023-04-23T04:22:35;98169.49;;;10.09;66.62
23361;BME280;11852;50.082;18.554;2023-04-23T04:23:42;98171.0;;;10.05;66.51
23361;BME280;11852;50.082;18.554;2023-04-23T04:24:48;98170.5;;;10.01;66.43
23361;BME280;11852;50.082;18.554;2023-04-23T04:25:55;98171.5;;;10.04;66.38
23361;BME280;11852;50.082;18.554;2023-04-23T04:27:03;98171.5;;;10.11;66.18
23361;BME280;11852;50.082;18.554;2023-04-23T04:28:09;98171.0;;;10.2;65.85
23361;BME280;11852;50.082;18.554;2023-04-23T04:29:16;98171.5;;;10.25;65.99
23361;BME280;11852;50.082;18.554;2023-04-23T04:30:23;98167.5;;;10.29;65.74
23361;BME280;11852;50.082;18.554;2023-04-23T04:31:30;98170.49;;;10.28;65.7
23361;BME280;11852;50.082;18.554;2023-04-23T04:32:37;98169.99;;;10.18;65.93
23361;BME280;11852;50.082;18.554;2023-04-23T04:33:44;98169.99;;;10.26;65.64
23361;BME280;11852;50.082;18.554;2023-04-23T04:34:51;98170.0;;;10.32;65.5
23361;BME280;11852;50.082;18.554;2023-04-23T04:35:58;98169.49;;;10.36;65.39
23361;BME280;11852;50.082;18.554;2023-04-23T04:37:05;98170.0;;;10.35;65.46
23361;BME280;11852;50.082;18.554;2023-04-23T04:38:12;98169.5;;;10.35;65.43
23361;BME280;11852;50.082;18.554;2023-04-23T04:39:19;98168.0;;;10.4;65.24
23361;BME280;11852;50.082;18.554;2023-04-23T04:40:26;98170.5;;;10.4;65.01
23361;BME280;11852;50.082;18.554;2023-04-23T04:41:33;98169.5;;;10.39;65.0
23361;BME280;11852;50.082;18.554;2023-04-23T04:42:39;98167.0;;;10.47;64.75
23361;BME280;11852;50.082;18.554;2023-04-23T04:43:46;98165.0;;;10.48;64.79
23361;BME280;11852;50.082;18.554;2023-04-23T04:44:53;98166.0;;;10.51;64.71
23361;BME280;11852;50.082;18.554;2023-04-23T04:46:00;98165.0;;;10.51;64.77
23361;BME280;11852;50.082;18.554;2023-04-23T04:47:08;98166.5;;;10.58;64.35
23361;BME280;11852;50.082;18.554;2023-04-23T04:48:15;98168.0;;;10.58;64.46
23361;BME280;11852;50.082;18.554;2023-04-23T04:49:22;98166.5;;;10.62;64.36
23361;BME280;11852;50.082;18.554;2023-04-23T04:50:30;98164.0;;;10.61;64.33
23361;BME280;11852;50.082;18.554;2023-04-23T04:51:37;98165.0;;;10.67;64.17
23361;BME280;11852;50.082;18.554;2023-04-23T04:52:44;98168.5;;;10.72;64.13
23361;BME280;11852;50.082;18.554;2023-04-23T04:53:51;98167.01;;;10.76;64.19
23361;BME280;11852;50.082;18.554;2023-04-23T04:54:58;98162.0;;;10.75;64.19
23361;BME280;11852;50.082;18.554;2023-04-23T04:56:06;98165.0;;;10.72;64.23
23361;BME280;11852;50.082;18.554;2023-04-23T04:57:12;98168.0;;;10.77;64.17
23361;BME280;11852;50.082;18.554;2023-04-23T04:58:19;98168.0;;;10.81;64.14
23361;BME280;11852;50.082;18.554;2023-04-23T04:59:26;98167.51;;;10.83;64.21
23361;BME280;11852;50.082;18.554;2023-04-23T05:00:33;98165.5;;;10.85;64.31
23361;BME280;11852;50.082;18.554;2023-04-23T05:01:40;98164.0;;;10.89;64.21
23361;BME280;11852;50.082;18.554;2023-04-23T05:02:47;98167.01;;;10.94;64.04
23361;BME280;11852;50.082;18.554;2023-04-23T05:03:56;98168.0;;;10.97;64.21
23361;BME280;11852;50.082;18.554;2023-04-23T05:05:03;98166.0;;;10.91;64.32
23361;BME280;11852;50.082;18.554;2023-04-23T05:06:11;98166.0;;;11.0;64.08
23361;BME280;11852;50.082;18.554;2023-04-23T05:07:18;98163.5;;;11.0;64.18
23361;BME280;11852;50.082;18.554;2023-04-23T05:08:24;98166.0;;;10.95;64.12
23361;BME280;11852;50.082;18.554;2023-04-23T05:09:31;98165.5;;;11.09;63.72
23361;BME280;11852;50.082;18.554;2023-04-23T05:10:38;98166.5;;;11.11;63.89
23361;BME280;11852;50.082;18.554;2023-04-23T05:11:45;98162.5;;;11.07;64.06
23361;BME280;11852;50.082;18.554;2023-04-23T05:12:52;98162.0;;;11.14;63.63
23361;BME280;11852;50.082;18.554;2023-04-23T05:13:58;98162.5;;;11.21;63.1
23361;BME280;11852;50.082;18.554;2023-04-23T05:15:10;98163.0;;;11.22;63.2
23361;BME280;11852;50.082;18.554;2023-04-23T05:16:16;98163.5;;;11.17;63.26
23361;BME280;11852;50.082;18.554;2023-04-23T05:17:23;98164.0;;;11.15;63.23
23361;BME280;11852;50.082;18.554;2023-04-23T05:18:29;98163.5;;;11.29;62.86
23361;BME280;11852;50.082;18.554;2023-04-23T05:19:36;98165.0;;;11.26;62.72
23361;BME280;11852;50.082;18.554;2023-04-23T05:20:43;98165.5;;;11.38;62.48
23361;BME280;11852;50.082;18.554;2023-04-23T05:21:50;98162.5;;;11.33;62.19
23361;BME280;11852;50.082;18.554;2023-04-23T05:22:57;98163.0;;;11.46;61.7
23361;BME280;11852;50.082;18.554;2023-04-23T05:24:04;98162.0;;;11.51;61.71
23361;BME280;11852;50.082;18.554;2023-04-23T05:25:11;98160.0;;;11.48;61.47
23361;BME280;11852;50.082;18.554;2023-04-23T05:26:18;98162.5;;;11.55;60.97
23361;BME280;11852;50.082;18.554;2023-04-23T05:27:25;98159.5;;;11.55;60.82
23361;BME280;11852;50.082;18.554;2023-04-23T05:28:31;98159.5;;;11.65;60.0
23361;BME280;11852;50.082;18.554;2023-04-23T05:29:39;98158.5;;;11.72;59.86
23361;BME280;11852;50.082;18.554;2023-04-23T05:30:45;98161.0;;;11.79;59.53
23361;BME280;11852;50.082;18.554;2023-04-23T05:31:52;98161.0;;;11.82;59.49
23361;BME280;11852;50.082;18.554;2023-04-23T05:33:00;98163.5;;;11.93;59.24
23361;BME280;11852;50.082;18.554;2023-04-23T05:34:08;98161.5;;;11.97;59.26
23361;BME280;11852;50.082;18.554;2023-04-23T05:35:15;98164.0;;;11.98;58.72
23361;BME280;11852;50.082;18.554;2023-04-23T05:36:22;98162.5;;;12.01;58.58
23361;BME280;11852;50.082;18.554;2023-04-23T05:37:29;98161.5;;;12.13;58.33
23361;BME280;11852;50.082;18.554;2023-04-23T05:38:35;98162.0;;;12.24;58.25
23361;BME280;11852;50.082;18.554;2023-04-23T05:39:42;98162.0;;;12.25;58.51
23361;BME280;11852;50.082;18.554;2023-04-23T05:40:50;98163.0;;;12.3;58.63
23361;BME280;11852;50.082;18.554;2023-04-23T05:41:57;98163.0;;;12.35;58.41
23361;BME280;11852;50.082;18.554;2023-04-23T05:43:04;98163.5;;;12.4;58.25
23361;BME280;11852;50.082;18.554;2023-04-23T05:44:11;98163.0;;;12.43;58.22
23361;BME280;11852;50.082;18.554;2023-04-23T05:45:18;98164.0;;;12.52;57.75
23361;BME280;11852;50.082;18.554;2023-04-23T05:46:24;98160.5;;;12.56;57.55
23361;BME280;11852;50.082;18.554;2023-04-23T05:47:31;98161.5;;;12.58;57.13
23361;BME280;11852;50.082;18.554;2023-04-23T05:48:38;98162.5;;;12.65;57.08
23361;BME280;11852;50.082;18.554;2023-04-23T05:49:45;98161.0;;;12.65;57.11
23361;BME280;11852;50.082;18.554;2023-04-23T05:50:52;98161.0;;;12.74;56.55
23361;BME280;11852;50.082;18.554;2023-04-23T05:52:01;98165.0;;;12.79;56.52
23361;BME280;11852;50.082;18.554;2023-04-23T05:53:08;98165.0;;;12.84;56.18
23361;BME280;11852;50.082;18.554;2023-04-23T05:54:15;98161.5;;;12.89;56.18
23361;BME280;11852;50.082;18.554;2023-04-23T05:55:23;98165.5;;;12.97;55.89